sensor_id;sensor_type;location;lat;lon;timestamp;pressure;altitude;pressure_sealevel;temperature;humidity
56992;BME280;42885;49.754;18.636;2023-06-01T00:00:02;98559.86;;;14.56;100.00
56992;BME280;42885;49.754;18.636;2023-06-01T00:02:34;98554.13;;;14.76;100.00
56992;BME280;42885;49.754;18.636;2023-06-01T00:05:05;98553.17;;;14.77;100.00
56992;BME280;42885;49.754;18.636;2023-06-01T00:07:36;98556.95;;;14.67;100.00
56992;BME280;42885;49.754;18.636;2023-06-01T00:10:07;98551.23;;;14.73;100.00
56992;BME280;42885;49.754;18.636;2023-06-01T00:12:38;98557.77;;;14.67;100.00
56992;BME280;42885;49.754;18.636;2023-06-01T00:15:09;98554.80;;;14.72;100.00
56992;BME280;42885;49.754;18.636;2023-06-01T00:17:40;98553.89;;;14.60;100.00
56992;BME280;42885;49.754;18.636;2023-06-01T00:20:11;98552.15;;;13.79;100.00
56992;BME280;42885;49.754;18.636;2023-06-01T00:22:42;98554.80;;;13.97;100.00
56992;BME280;42885;49.754;18.636;2023-06-01T00:25:12;98556.70;;;13.95;100.00
56992;BME280;42885;49.754;18.636;2023-06-01T00:27:43;98565.19;;;13.93;100.00
56992;BME280;42885;49.754;18.636;2023-06-01T00:30:14;98563.37;;;14.20;100.00
56992;BME280;42885;49.754;18.636;2023-06-01T00:32:46;98559.28;;;14.02;100.00
56992;BME280;42885;49.754;18.636;2023-06-01T00:35:17;98561.42;;;14.16;100.00
56992;BME280;42885;49.754;18.636;2023-06-01T00:37:48;98556.79;;;14.20;100.00
56992;BME280;42885;49.754;18.636;2023-06-01T00:40:19;98558.06;;;14.01;100.00
56992;BME280;42885;49.754;18.636;2023-06-01T00:42:50;98555.15;;;13.67;100.00
56992;BME280;42885;49.754;18.636;2023-06-01T00:45:21;98560.15;;;13.44;100.00
56992;BME280;42885;49.754;18.636;2023-06-01T00:47:52;98554.42;;;13.65;100.00
56992;BME280;42885;49.754;18.636;2023-06-01T00:50:23;98552.53;;;13.98;100.00
56992;BME280;42885;49.754;18.636;2023-06-01T00:52:55;98556.12;;;13.97;100.00
56992;BME280;42885;49.754;18.636;2023-06-01T00:55:27;98563.20;;;13.84;100.00
56992;BME280;42885;49.754;18.636;2023-06-01T00:57:58;98559.99;;;13.47;100.00
56992;BME280;42885;49.754;18.636;2023-06-01T01:00:29;98562.77;;;13.77;100.00
56992;BME280;42885;49.754;18.636;2023-06-01T01:03:01;98563.03;;;13.80;100.00
56992;BME280;42885;49.754;18.636;2023-06-01T01:05:34;98560.95;;;13.72;100.00
56992;BME280;42885;49.754;18.636;2023-06-01T01:08:28;98560.45;;;13.85;100.00
56992;BME280;42885;49.754;18.636;2023-06-01T01:11:18;98559.87;;;14.00;100.00
56992;BME280;42885;49.754;18.636;2023-06-01T01:13:50;98559.23;;;13.97;100.00
56992;BME280;42885;49.754;18.636;2023-06-01T01:16:42;98551.97;;;14.00;100.00
56992;BME280;42885;49.754;18.636;2023-06-01T01:22:25;98546.80;;;13.67;100.00
56992;BME280;42885;49.754;18.636;2023-06-01T01:30:52;98546.94;;;13.58;100.00
56992;BME280;42885;49.754;18.636;2023-06-01T01:33:27;98553.83;;;12.80;100.00
56992;BME280;42885;49.754;18.636;2023-06-01T01:36:00;98545.33;;;13.10;100.00
56992;BME280;42885;49.754;18.636;2023-06-01T01:38:33;98546.38;;;13.40;100.00
56992;BME280;42885;49.754;18.636;2023-06-01T01:41:05;98544.16;;;13.21;100.00
56992;BME280;42885;49.754;18.636;2023-06-01T01:43:37;98545.30;;;13.17;100.00
56992;BME280;42885;49.754;18.636;2023-06-01T01:46:25;98545.39;;;13.15;100.00
56992;BME280;42885;49.754;18.636;2023-06-01T01:49:25;98542.52;;;13.13;100.00
56992;BME280;42885;49.754;18.636;2023-06-01T01:54:47;98533.05;;;13.10;100.00
56992;BME280;42885;49.754;18.636;2023-06-01T01:57:13;98537.91;;;13.16;100.00
56992;BME280;42885;49.754;18.636;2023-06-01T01:59:46;98532.95;;;12.44;100.00
56992;BME280;42885;49.754;18.636;2023-06-01T02:02:17;98536.31;;;12.46;100.00
56992;BME280;42885;49.754;18.636;2023-06-01T02:04:48;98532.86;;;12.65;100.00
56992;BME280;42885;49.754;18.636;2023-06-01T02:07:19;98531.80;;;12.75;100.00
56992;BME280;42885;49.754;18.636;2023-06-01T02:09:51;98534.55;;;13.07;100.00
56992;BME280;42885;49.754;18.636;2023-06-01T02:12:21;98530.77;;;13.31;100.00
56992;BME280;42885;49.754;18.636;2023-06-01T02:14:52;98527.88;;;13.42;100.00
56992;BME280;42885;49.754;18.636;2023-06-01T02:17:23;98528.83;;;13.41;100.00
56992;BME280;42885;49.754;18.636;2023-06-01T02:19:56;98516.53;;;13.28;100.00
56992;BME280;42885;49.754;18.636;2023-06-01T02:22:27;98525.42;;;13.00;100.00
56992;BME280;42885;49.754;18.636;2023-06-01T02:24:57;98518.92;;;13.18;100.00
56992;BME280;42885;49.754;18.636;2023-06-01T02:27:28;98515.90;;;13.38;100.00
56992;BME280;42885;49.754;18.636;2023-06-01T02:29:59;98515.09;;;13.43;100.00
56992;BME280;42885;49.754;18.636;2023-06-01T02:32:30;98514.36;;;13.41;100.00
56992;BME280;42885;49.754;18.636;2023-06-01T02:35:02;98516.36;;;13.37;100.00
56992;BME280;42885;49.754;18.636;2023-06-01T02:37:33;98512.03;;;13.10;100.00
56992;BME280;42885;49.754;18.636;2023-06-01T02:40:04;98507.83;;;13.20;100.00
56992;BME280;42885;49.754;18.636;2023-06-01T02:42:36;98505.14;;;13.02;100.00
56992;BME280;42885;49.754;18.636;2023-06-01T02:45:08;98503.53;;;12.86;100.00
56992;BME280;42885;49.754;18.636;2023-06-01T02:47:39;98504.09;;;13.04;100.00
56992;BME280;42885;49.754;18.636;2023-06-01T02:50:10;98503.88;;;12.47;100.00
56992;BME280;42885;49.754;18.636;2023-06-01T02:52:43;98499.20;;;12.45;100.00
56992;BME280;42885;49.754;18.636;2023-06-01T02:55:15;98500.11;;;12.78;100.00
56992;BME280;42885;49.754;18.636;2023-06-01T02:57:51;98499.03;;;12.61;100.00
56992;BME280;42885;49.754;18.636;2023-06-01T03:00:21;98503.49;;;12.93;100.00
56992;BME280;42885;49.754;18.636;2023-06-01T03:02:52;98494.27;;;13.01;100.00
56992;BME280;42885;49.754;18.636;2023-06-01T03:05:23;98494.00;;;12.78;100.00
56992;BME280;42885;49.754;18.636;2023-06-01T03:07:57;98493.83;;;13.07;100.00
56992;BME280;42885;49.754;18.636;2023-06-01T03:10:29;98496.11;;;12.86;100.00
56992;BME280;42885;49.754;18.636;2023-06-01T03:13:07;98494.24;;;12.88;100.00
56992;BME280;42885;49.754;18.636;2023-06-01T03:15:38;98496.04;;;12.60;100.00
56992;BME280;42885;49.754;18.636;2023-06-01T03:18:09;98493.91;;;12.59;100.00
56992;BME280;42885;49.754;18.636;2023-06-01T03:20:40;98503.09;;;13.00;100.00
56992;BME280;42885;49.754;18.636;2023-06-01T03:23:11;98494.61;;;12.89;100.00
56992;BME280;42885;49.754;18.636;2023-06-01T03:25:42;98501.80;;;13.13;100.00
56992;BME280;42885;49.754;18.636;2023-06-01T03:28:13;98501.36;;;12.86;100.00
56992;BME280;42885;49.754;18.636;2023-06-01T03:30:44;98497.59;;;12.49;100.00
56992;BME280;42885;49.754;18.636;2023-06-01T03:33:16;98496.27;;;12.22;100.00
56992;BME280;42885;49.754;18.636;2023-06-01T03:35:47;98492.89;;;12.27;100.00
56992;BME280;42885;49.754;18.636;2023-06-01T03:38:20;98490.79;;;12.32;100.00
56992;BME280;42885;49.754;18.636;2023-06-01T03:40:51;98489.48;;;12.60;100.00
56992;BME280;42885;49.754;18.636;2023-06-01T03:43:22;98487.39;;;13.18;100.00
56992;BME280;42885;49.754;18.636;2023-06-01T03:45:53;98483.36;;;13.33;100.00
56992;BME280;42885;49.754;18.636;2023-06-01T03:48:25;98484.34;;;13.45;100.00
56992;BME280;42885;49.754;18.636;2023-06-01T03:50:57;98486.25;;;13.02;100.00
56992;BME280;42885;49.754;18.636;2023-06-01T03:53:29;98489.05;;;12.73;100.00
56992;BME280;42885;49.754;18.636;2023-06-01T03:56:01;98494.24;;;12.68;100.00
56992;BME280;42885;49.754;18.636;2023-06-01T03:58:34;98490.13;;;12.63;100.00
56992;BME280;42885;49.754;18.636;2023-06-01T04:01:05;98483.53;;;13.04;100.00
56992;BME280;42885;49.754;18.636;2023-06-01T04:03:37;98481.53;;;13.54;100.00
56992;BME280;42885;49.754;18.636;2023-06-01T04:06:08;98478.56;;;13.90;100.00
56992;BME280;42885;49.754;18.636;2023-06-01T04:08:40;98480.05;;;13.94;100.00
56992;BME280;42885;49.754;18.636;2023-06-01T04:11:13;98486.13;;;14.08;100.00
56992;BME280;42885;49.754;18.636;2023-06-01T04:13:44;98483.09;;;14.20;100.00
56992;BME280;42885;49.754;18.636;2023-06-01T04:16:15;98482.93;;;14.40;100.00
56992;BME280;42885;49.754;18.636;2023-06-01T04:18:46;98482.00;;;14.22;100.00
56992;BME280;42885;49.754;18.636;2023-06-01T04:21:20;98485.89;;;14.11;100.00
56992;BME280;42885;49.754;18.636;2023-06-01T04:23:52;98482.13;;;14.21;100.00
56992;BME280;42885;49.754;18.636;2023-06-01T04:26:24;98486.80;;;14.71;100.00
56992;BME280;42885;49.754;18.636;2023-06-01T04:28:57;98485.59;;;14.94;100.00
56992;BME280;42885;49.754;18.636;2023-06-01T04:31:28;98484.47;;;14.80;100.00
56992;BME280;42885;49.754;18.636;2023-06-01T04:34:01;98474.41;;;14.85;100.00
56992;BME280;42885;49.754;18.636;2023-06-01T04:36:35;98476.50;;;15.04;100.00
56992;BME280;42885;49.754;18.636;2023-06-01T04:39:09;98470.95;;;14.90;100.00
56992;BME280;42885;49.754;18.636;2023-06-01T04:41:40;98472.48;;;15.28;100.00
56992;BME280;42885;49.754;18.636;2023-06-01T04:44:11;98470.66;;;15.18;100.00
56992;BME280;42885;49.754;18.636;2023-06-01T04:46:43;98467.70;;;15.45;100.00
56992;BME280;42885;49.754;18.636;2023-06-01T04:49:15;98465.16;;;15.55;100.00
56992;BME280;42885;49.754;18.636;2023-06-01T04:51:47;98463.72;;;15.68;100.00
56992;BME280;42885;49.754;18.636;2023-06-01T04:54:20;98458.00;;;15.91;100.00
56992;BME280;42885;49.754;18.636;2023-06-01T04:56:50;98459.63;;;16.09;100.00
56992;BME280;42885;49.754;18.636;2023-06-01T04:59:22;98453.16;;;16.52;100.00
56992;BME280;42885;49.754;18.636;2023-06-01T05:01:53;98453.36;;;16.60;100.00
56992;BME280;42885;49.754;18.636;2023-06-01T05:04:24;98452.60;;;16.91;99.83
56992;BME280;42885;49.754;18.636;2023-06-01T05:06:55;98446.17;;;17.05;98.36
56992;BME280;42885;49.754;18.636;2023-06-01T05:09:26;98449.95;;;17.33;93.47
56992;BME280;42885;49.754;18.636;2023-06-01T05:11:57;98444.72;;;17.43;92.62
56992;BME280;42885;49.754;18.636;2023-06-01T05:14:28;98445.53;;;17.59;90.64
56992;BME280;42885;49.754;18.636;2023-06-01T05:16:59;98443.93;;;17.63;88.72
56992;BME280;42885;49.754;18.636;2023-06-01T05:19:30;98440.08;;;18.02;87.29
56992;BME280;42885;49.754;18.636;2023-06-01T05:22:00;98438.03;;;18.06;86.09
56992;BME280;42885;49.754;18.636;2023-06-01T05:24:31;98434.53;;;18.05;85.24
56992;BME280;42885;49.754;18.636;2023-06-01T05:27:03;98434.97;;;18.10;84.00
56992;BME280;42885;49.754;18.636;2023-06-01T05:29:34;98430.39;;;18.22;85.23
56992;BME280;42885;49.754;18.636;2023-06-01T05:32:06;98429.83;;;18.38;81.84
56992;BME280;42885;49.754;18.636;2023-06-01T05:34:37;98429.97;;;18.56;79.74
56992;BME280;42885;49.754;18.636;2023-06-01T05:37:08;98433.45;;;18.77;78.50
56992;BME280;42885;49.754;18.636;2023-06-01T05:39:39;98433.53;;;18.81;76.44
56992;BME280;42885;49.754;18.636;2023-06-01T05:42:10;98429.80;;;18.97;78.05
56992;BME280;42885;49.754;18.636;2023-06-01T05:44:42;98427.04;;;19.37;75.37
56992;BME280;42885;49.754;18.636;2023-06-01T05:47:13;98425.58;;;19.38;75.86
56992;BME280;42885;49.754;18.636;2023-06-01T05:49:44;98424.73;;;19.38;73.64
56992;BME280;42885;49.754;18.636;2023-06-01T05:52:15;98422.92;;;19.38;74.47
56992;BME280;42885;49.754;18.636;2023-06-01T05:54:46;98423.92;;;19.51;76.27
56992;BME280;42885;49.754;18.636;2023-06-01T05:57:19;98424.42;;;19.65;75.10
56992;BME280;42885;49.754;18.636;2023-06-01T05:59:50;98414.20;;;19.84;74.51
56992;BME280;42885;49.754;18.636;2023-06-01T06:02:23;98416.79;;;19.80;76.46
56992;BME280;42885;49.754;18.636;2023-06-01T06:04:54;98415.23;;;19.73;74.91
56992;BME280;42885;49.754;18.636;2023-06-01T06:07:24;98412.69;;;19.96;73.38
56992;BME280;42885;49.754;18.636;2023-06-01T06:09:56;98413.45;;;20.06;68.88
56992;BME280;42885;49.754;18.636;2023-06-01T06:12:27;98407.70;;;20.29;69.93
56992;BME280;42885;49.754;18.636;2023-06-01T06:14:58;98414.11;;;20.62;69.24
56992;BME280;42885;49.754;18.636;2023-06-01T06:17:29;98410.23;;;20.34;67.60
56992;BME280;42885;49.754;18.636;2023-06-01T06:20:00;98406.33;;;20.65;66.52
56992;BME280;42885;49.754;18.636;2023-06-01T06:22:30;98410.71;;;20.74;66.10
56992;BME280;42885;49.754;18.636;2023-06-01T06:25:01;98409.58;;;20.77;65.74
56992;BME280;42885;49.754;18.636;2023-06-01T06:27:32;98406.77;;;20.97;63.70
56992;BME280;42885;49.754;18.636;2023-06-01T06:30:03;98400.34;;;21.38;61.34
56992;BME280;42885;49.754;18.636;2023-06-01T06:32:36;98400.34;;;21.38;61.34
56992;BME280;42885;49.754;18.636;2023-06-01T06:35:07;98404.48;;;21.41;59.42
56992;BME280;42885;49.754;18.636;2023-06-01T06:37:43;98403.80;;;21.69;58.68
56992;BME280;42885;49.754;18.636;2023-06-01T06:40:11;98405.04;;;21.53;58.73
56992;BME280;42885;49.754;18.636;2023-06-01T06:42:42;98398.66;;;21.72;56.17
56992;BME280;42885;49.754;18.636;2023-06-01T06:45:13;98395.90;;;22.03;55.36
56992;BME280;42885;49.754;18.636;2023-06-01T06:47:43;98395.94;;;22.15;54.34
56992;BME280;42885;49.754;18.636;2023-06-01T06:50:16;98396.61;;;22.25;53.14
56992;BME280;42885;49.754;18.636;2023-06-01T06:52:46;98398.28;;;22.43;53.54
56992;BME280;42885;49.754;18.636;2023-06-01T06:55:17;98393.95;;;22.34;52.77
56992;BME280;42885;49.754;18.636;2023-06-01T06:57:48;98386.11;;;22.32;51.88
56992;BME280;42885;49.754;18.636;2023-06-01T07:00:20;98385.27;;;22.94;51.02
56992;BME280;42885;49.754;18.636;2023-06-01T07:02:51;98385.27;;;22.94;51.93
56992;BME280;42885;49.754;18.636;2023-06-01T07:05:23;98381.85;;;23.25;53.02
56992;BME280;42885;49.754;18.636;2023-06-01T07:07:54;98385.37;;;23.30;50.75
56992;BME280;42885;49.754;18.636;2023-06-01T07:10:25;98377.87;;;23.21;51.35
56992;BME280;42885;49.754;18.636;2023-06-01T07:12:56;98380.55;;;23.21;52.53
56992;BME280;42885;49.754;18.636;2023-06-01T07:15:26;98376.55;;;23.21;50.66
56992;BME280;42885;49.754;18.636;2023-06-01T07:17:57;98379.16;;;23.42;51.33
56992;BME280;42885;49.754;18.636;2023-06-01T07:20:28;98370.67;;;23.70;49.79
56992;BME280;42885;49.754;18.636;2023-06-01T07:22:59;98379.04;;;23.71;50.05
56992;BME280;42885;49.754;18.636;2023-06-01T07:25:30;98368.86;;;23.93;49.37
56992;BME280;42885;49.754;18.636;2023-06-01T07:28:00;98372.09;;;24.16;50.46
56992;BME280;42885;49.754;18.636;2023-06-01T07:30:34;98370.15;;;24.02;48.17
56992;BME280;42885;49.754;18.636;2023-06-01T07:33:05;98366.79;;;24.31;47.46
56992;BME280;42885;49.754;18.636;2023-06-01T07:35:36;98370.33;;;24.28;46.09
56992;BME280;42885;49.754;18.636;2023-06-01T07:38:07;98368.39;;;24.22;45.79
56992;BME280;42885;49.754;18.636;2023-06-01T07:40:38;98367.94;;;24.37;45.68
56992;BME280;42885;49.754;18.636;2023-06-01T07:43:08;98360.44;;;24.52;45.16
56992;BME280;42885;49.754;18.636;2023-06-01T07:45:40;98363.02;;;24.64;44.59
56992;BME280;42885;49.754;18.636;2023-06-01T07:48:10;98359.77;;;24.54;43.93
56992;BME280;42885;49.754;18.636;2023-06-01T07:50:41;98358.78;;;24.51;45.12
56992;BME280;42885;49.754;18.636;2023-06-01T07:53:12;98359.52;;;24.83;45.89
56992;BME280;42885;49.754;18.636;2023-06-01T07:55:43;98364.70;;;24.99;43.81
56992;BME280;42885;49.754;18.636;2023-06-01T07:58:15;98357.52;;;25.00;43.01
56992;BME280;42885;49.754;18.636;2023-06-01T08:00:46;98360.59;;;24.73;41.25
56992;BME280;42885;49.754;18.636;2023-06-01T08:03:18;98352.66;;;24.84;41.41
56992;BME280;42885;49.754;18.636;2023-06-01T08:05:50;98347.70;;;24.92;40.84
56992;BME280;42885;49.754;18.636;2023-06-01T08:08:22;98349.83;;;25.68;42.55
56992;BME280;42885;49.754;18.636;2023-06-01T08:10:54;98356.11;;;25.04;39.03
56992;BME280;42885;49.754;18.636;2023-06-01T08:13:25;98355.97;;;25.01;37.71
56992;BME280;42885;49.754;18.636;2023-06-01T08:15:56;98351.62;;;24.66;39.15
56992;BME280;42885;49.754;18.636;2023-06-01T08:18:26;98352.89;;;24.94;35.63
56992;BME280;42885;49.754;18.636;2023-06-01T08:20:58;98345.93;;;25.04;33.53
56992;BME280;42885;49.754;18.636;2023-06-01T08:23:33;98341.75;;;25.16;34.12
56992;BME280;42885;49.754;18.636;2023-06-01T08:26:05;98343.36;;;25.36;35.46
56992;BME280;42885;49.754;18.636;2023-06-01T08:28:35;98346.39;;;25.48;35.64
56992;BME280;42885;49.754;18.636;2023-06-01T08:31:07;98338.27;;;25.15;34.08
56992;BME280;42885;49.754;18.636;2023-06-01T08:33:38;98339.05;;;25.20;32.23
56992;BME280;42885;49.754;18.636;2023-06-01T08:36:09;98340.25;;;25.43;32.12
56992;BME280;42885;49.754;18.636;2023-06-01T08:38:40;98343.31;;;25.55;32.28
56992;BME280;42885;49.754;18.636;2023-06-01T08:44:03;98332.15;;;25.48;33.55
56992;BME280;42885;49.754;18.636;2023-06-01T08:46:36;98329.37;;;25.71;34.57
56992;BME280;42885;49.754;18.636;2023-06-01T08:49:07;98329.05;;;25.70;35.61
56992;BME280;42885;49.754;18.636;2023-06-01T08:51:40;98333.08;;;26.03;35.96
56992;BME280;42885;49.754;18.636;2023-06-01T08:54:13;98326.88;;;26.02;36.11
56992;BME280;42885;49.754;18.636;2023-06-01T08:56:44;98320.84;;;26.04;35.68
56992;BME280;42885;49.754;18.636;2023-06-01T08:59:15;98319.02;;;25.57;36.21
56992;BME280;42885;49.754;18.636;2023-06-01T09:01:46;98319.18;;;26.03;36.48
56992;BME280;42885;49.754;18.636;2023-06-01T09:04:17;98315.73;;;25.88;35.72
56992;BME280;42885;49.754;18.636;2023-06-01T09:06:48;98313.60;;;26.05;35.01
56992;BME280;42885;49.754;18.636;2023-06-01T09:09:19;98313.87;;;25.99;34.79
56992;BME280;42885;49.754;18.636;2023-06-01T09:14:40;98309.16;;;26.62;34.79
56992;BME280;42885;49.754;18.636;2023-06-01T09:17:14;98312.17;;;26.52;33.76
56992;BME280;42885;49.754;18.636;2023-06-01T09:19:47;98310.13;;;26.44;33.70
56992;BME280;42885;49.754;18.636;2023-06-01T09:22:17;98312.31;;;26.73;33.50
56992;BME280;42885;49.754;18.636;2023-06-01T09:25:00;98300.19;;;26.95;33.74
56992;BME280;42885;49.754;18.636;2023-06-01T09:27:44;98299.17;;;26.17;34.57
56992;BME280;42885;49.754;18.636;2023-06-01T09:30:17;98302.19;;;26.57;34.88
56992;BME280;42885;49.754;18.636;2023-06-01T09:32:48;98299.20;;;26.56;33.69
56992;BME280;42885;49.754;18.636;2023-06-01T09:38:11;98293.94;;;27.05;33.87
56992;BME280;42885;49.754;18.636;2023-06-01T09:40:43;98288.38;;;27.06;34.33
56992;BME280;42885;49.754;18.636;2023-06-01T09:43:21;98285.04;;;28.38;34.36
56992;BME280;42885;49.754;18.636;2023-06-01T09:46:09;98283.66;;;27.40;33.10
56992;BME280;42885;49.754;18.636;2023-06-01T09:48:41;98285.67;;;27.31;32.75
56992;BME280;42885;49.754;18.636;2023-06-01T09:51:24;98279.70;;;27.42;33.00
56992;BME280;42885;49.754;18.636;2023-06-01T09:53:56;98277.41;;;27.57;32.30
56992;BME280;42885;49.754;18.636;2023-06-01T09:56:26;98282.75;;;28.55;33.18
56992;BME280;42885;49.754;18.636;2023-06-01T09:58:59;98275.41;;;27.48;32.42
56992;BME280;42885;49.754;18.636;2023-06-01T10:01:31;98278.67;;;27.43;32.26
56992;BME280;42885;49.754;18.636;2023-06-01T10:04:04;98286.90;;;27.28;32.91
56992;BME280;42885;49.754;18.636;2023-06-01T10:06:38;98282.30;;;27.15;33.26
56992;BME280;42885;49.754;18.636;2023-06-01T10:09:11;98276.81;;;27.37;32.63
56992;BME280;42885;49.754;18.636;2023-06-01T10:11:48;98272.61;;;27.45;33.22
56992;BME280;42885;49.754;18.636;2023-06-01T10:14:20;98263.89;;;27.61;32.49
56992;BME280;42885;49.754;18.636;2023-06-01T10:16:53;98262.97;;;27.40;33.01
56992;BME280;42885;49.754;18.636;2023-06-01T10:19:24;98262.27;;;28.14;32.03
56992;BME280;42885;49.754;18.636;2023-06-01T10:21:57;98260.73;;;28.29;31.44
56992;BME280;42885;49.754;18.636;2023-06-01T10:24:28;98254.08;;;28.18;31.50
56992;BME280;42885;49.754;18.636;2023-06-01T10:27:39;98254.73;;;28.27;31.42
56992;BME280;42885;49.754;18.636;2023-06-01T10:29:42;98252.55;;;28.40;31.50
56992;BME280;42885;49.754;18.636;2023-06-01T10:35:50;98246.58;;;28.31;31.20
56992;BME280;42885;49.754;18.636;2023-06-01T10:37:42;98242.48;;;28.58;31.20
56992;BME280;42885;49.754;18.636;2023-06-01T10:42:54;98238.59;;;28.90;31.03
56992;BME280;42885;49.754;18.636;2023-06-01T10:45:36;98232.98;;;29.15;31.32
56992;BME280;42885;49.754;18.636;2023-06-01T10:48:11;98226.16;;;29.51;30.50
56992;BME280;42885;49.754;18.636;2023-06-01T10:50:42;98224.30;;;29.29;30.39
56992;BME280;42885;49.754;18.636;2023-06-01T10:53:27;98229.79;;;29.31;29.93
56992;BME280;42885;49.754;18.636;2023-06-01T10:56:23;98224.59;;;29.85;29.42
56992;BME280;42885;49.754;18.636;2023-06-01T10:59:11;98226.58;;;29.32;30.02
56992;BME280;42885;49.754;18.636;2023-06-01T11:01:44;98226.54;;;29.87;29.26
56992;BME280;42885;49.754;18.636;2023-06-01T11:04:15;98226.98;;;30.25;28.54
56992;BME280;42885;49.754;18.636;2023-06-01T11:06:46;98227.54;;;30.62;28.03
56992;BME280;42885;49.754;18.636;2023-06-01T11:09:16;98220.88;;;30.55;28.21
56992;BME280;42885;49.754;18.636;2023-06-01T11:14:29;98214.94;;;30.84;28.65
56992;BME280;42885;49.754;18.636;2023-06-01T11:17:25;98212.61;;;30.50;29.26
56992;BME280;42885;49.754;18.636;2023-06-01T11:20:01;98213.12;;;30.40;29.60
56992;BME280;42885;49.754;18.636;2023-06-01T11:22:37;98206.61;;;30.48;28.72
56992;BME280;42885;49.754;18.636;2023-06-01T11:25:10;98217.45;;;31.25;28.51
56992;BME280;42885;49.754;18.636;2023-06-01T11:27:44;98204.27;;;30.98;29.02
56992;BME280;42885;49.754;18.636;2023-06-01T11:30:18;98198.56;;;31.58;27.55
56992;BME280;42885;49.754;18.636;2023-06-01T11:32:51;98196.78;;;30.91;28.41
56992;BME280;42885;49.754;18.636;2023-06-01T11:35:23;98195.00;;;32.36;27.51
56992;BME280;42885;49.754;18.636;2023-06-01T11:37:56;98192.66;;;31.71;27.33
56992;BME280;42885;49.754;18.636;2023-06-01T11:40:26;98184.72;;;31.79;26.80
56992;BME280;42885;49.754;18.636;2023-06-01T11:42:57;98184.83;;;31.93;26.99
56992;BME280;42885;49.754;18.636;2023-06-01T11:45:28;98183.19;;;32.16;27.00
56992;BME280;42885;49.754;18.636;2023-06-01T11:48:10;98187.02;;;32.30;26.89
56992;BME280;42885;49.754;18.636;2023-06-01T11:50:45;98176.41;;;32.52;25.62
56992;BME280;42885;49.754;18.636;2023-06-01T11:53:15;98173.23;;;31.95;26.75
56992;BME280;42885;49.754;18.636;2023-06-01T11:55:53;98183.16;;;32.64;25.50
56992;BME280;42885;49.754;18.636;2023-06-01T11:58:26;98173.77;;;32.54;25.81
56992;BME280;42885;49.754;18.636;2023-06-01T12:00:57;98175.58;;;32.51;25.70
56992;BME280;42885;49.754;18.636;2023-06-01T12:03:29;98172.88;;;32.27;25.83
56992;BME280;42885;49.754;18.636;2023-06-01T12:06:01;98167.54;;;32.68;25.79
56992;BME280;42885;49.754;18.636;2023-06-01T12:08:32;98164.20;;;33.51;24.68
56992;BME280;42885;49.754;18.636;2023-06-01T12:11:03;98165.77;;;33.18;24.16
56992;BME280;42885;49.754;18.636;2023-06-01T12:13:34;98165.78;;;32.62;24.03
56992;BME280;42885;49.754;18.636;2023-06-01T12:16:05;98161.03;;;33.57;24.06
56992;BME280;42885;49.754;18.636;2023-06-01T12:18:36;98166.61;;;34.38;23.35
56992;BME280;42885;49.754;18.636;2023-06-01T12:21:11;98162.73;;;33.77;23.72
56992;BME280;42885;49.754;18.636;2023-06-01T12:23:42;98157.75;;;33.55;24.17
56992;BME280;42885;49.754;18.636;2023-06-01T12:26:13;98163.03;;;33.47;23.09
56992;BME280;42885;49.754;18.636;2023-06-01T12:28:51;98153.23;;;33.77;22.71
56992;BME280;42885;49.754;18.636;2023-06-01T12:31:25;98152.48;;;34.58;23.48
56992;BME280;42885;49.754;18.636;2023-06-01T12:33:57;98152.65;;;34.10;21.77
56992;BME280;42885;49.754;18.636;2023-06-01T12:36:37;98147.95;;;34.25;21.65
56992;BME280;42885;49.754;18.636;2023-06-01T12:39:04;98148.69;;;34.00;21.90
56992;BME280;42885;49.754;18.636;2023-06-01T12:41:35;98146.88;;;33.89;22.53
56992;BME280;42885;49.754;18.636;2023-06-01T12:44:06;98142.67;;;34.15;24.01
56992;BME280;42885;49.754;18.636;2023-06-01T12:46:37;98139.00;;;33.53;21.73
56992;BME280;42885;49.754;18.636;2023-06-01T12:49:16;98139.05;;;33.73;22.71
56992;BME280;42885;49.754;18.636;2023-06-01T12:51:48;98138.09;;;34.38;22.22
56992;BME280;42885;49.754;18.636;2023-06-01T12:54:19;98133.86;;;33.71;22.46
56992;BME280;42885;49.754;18.636;2023-06-01T12:56:51;98134.09;;;33.87;21.70
56992;BME280;42885;49.754;18.636;2023-06-01T12:59:22;98138.20;;;32.65;22.12
56992;BME280;42885;49.754;18.636;2023-06-01T13:01:55;98123.78;;;33.35;23.58
56992;BME280;42885;49.754;18.636;2023-06-01T13:04:26;98129.09;;;33.98;23.55
56992;BME280;42885;49.754;18.636;2023-06-01T13:06:57;98123.71;;;33.81;22.62
56992;BME280;42885;49.754;18.636;2023-06-01T13:09:29;98117.52;;;35.52;23.08
56992;BME280;42885;49.754;18.636;2023-06-01T13:12:00;98113.41;;;34.65;21.08
56992;BME280;42885;49.754;18.636;2023-06-01T13:14:33;98108.84;;;35.55;20.57
56992;BME280;42885;49.754;18.636;2023-06-01T13:17:04;98119.92;;;34.89;20.76
56992;BME280;42885;49.754;18.636;2023-06-01T13:19:35;98119.16;;;35.51;21.57
56992;BME280;42885;49.754;18.636;2023-06-01T13:22:06;98121.06;;;34.93;21.61
56992;BME280;42885;49.754;18.636;2023-06-01T13:24:37;98110.45;;;35.19;20.42
56992;BME280;42885;49.754;18.636;2023-06-01T13:27:08;98110.45;;;35.19;20.42
56992;BME280;42885;49.754;18.636;2023-06-01T13:29:38;98116.66;;;36.28;19.72
56992;BME280;42885;49.754;18.636;2023-06-01T13:32:09;98113.88;;;35.72;20.46
56992;BME280;42885;49.754;18.636;2023-06-01T13:34:41;98105.17;;;36.13;19.18
56992;BME280;42885;49.754;18.636;2023-06-01T13:37:11;98103.33;;;35.80;19.99
56992;BME280;42885;49.754;18.636;2023-06-01T13:39:42;98100.70;;;34.48;20.62